createdAt,value
2022-11-03T08:58:51.540Z,447.63
2022-11-03T09:04:17.227Z,434.20
2022-11-03T09:11:33.642Z,401.73
2022-11-03T09:14:06.534Z,428.50
2022-11-03T09:16:38.813Z,387.67
2022-11-03T09:19:11.134Z,362.83
2022-11-03T09:21:44.571Z,359.95
2022-11-03T09:24:16.955Z,348.35
2022-11-03T09:26:55.143Z,362.52
2022-11-03T09:29:51.625Z,337.73
2022-11-03T09:32:24.661Z,330.38
2022-11-03T09:34:57.428Z,316.40
2022-11-03T09:37:31.323Z,301.38
2022-11-03T10:04:04.621Z,214.32
2022-11-03T10:17:08.032Z,159.80
2022-11-03T10:19:55.487Z,156.90
2022-11-03T10:26:01.033Z,154.25
2022-11-03T10:29:00.861Z,151.30
2022-11-03T10:33:31.961Z,136.90
2022-11-03T10:36:11.524Z,151.73
2022-11-03T10:38:53.600Z,154.20
2022-11-03T10:41:33.946Z,146.13
2022-11-03T10:44:21.464Z,158.50
2022-11-03T10:47:04.793Z,155.63
2022-11-03T10:49:43.900Z,159.32
2022-11-03T10:52:26.184Z,154.90
2022-11-03T10:55:09.486Z,161.90
2022-11-03T10:58:16.465Z,153.68
2022-11-03T11:00:50.481Z,144.98
2022-11-03T11:03:23.778Z,157.80
2022-11-03T11:05:59.089Z,152.95
2022-11-03T11:08:35.934Z,147.68
2022-11-03T11:11:12.892Z,151.93
2022-11-03T11:13:45.734Z,155.23
2022-11-03T11:16:52.661Z,156.48
2022-11-03T11:19:35.589Z,156.55
2022-11-03T11:22:20.095Z,155.85
2022-11-03T11:25:09.488Z,153.68
2022-11-03T11:28:00.277Z,148.25
2022-11-03T11:31:08.046Z,157.32
2022-11-03T11:33:44.841Z,158.88
2022-11-03T11:36:31.823Z,158.55
2022-11-03T11:39:06.926Z,160.13
2022-11-03T11:42:16.262Z,164.20
2022-11-03T11:45:08.901Z,156.88
2022-11-03T11:47:57.486Z,160.88
2022-11-03T11:50:38.600Z,161.05
2022-11-03T11:53:31.964Z,158.10
2022-11-03T11:56:07.151Z,155.23
2022-11-03T11:58:47.655Z,156.07
2022-11-03T12:01:29.914Z,162.38
2022-11-03T12:04:09.724Z,155.98
2022-11-03T12:09:24.532Z,170.55
2022-11-03T12:12:06.867Z,173.93
2022-11-03T12:14:44.847Z,176.50
2022-11-03T12:17:39.056Z,166.77
2022-11-03T12:20:39.029Z,170.27
2022-11-03T12:23:14.085Z,171.00
2022-11-03T12:25:48.264Z,169.15
2022-11-03T12:28:39.289Z,171.85
2022-11-03T12:31:15.747Z,171.00
2022-11-03T12:33:47.477Z,171.55
2022-11-03T12:36:19.867Z,171.38
2022-11-03T12:38:52.803Z,183.32
2022-11-03T12:41:25.950Z,179.38
2022-11-03T12:44:00.170Z,184.00
2022-11-03T12:46:32.579Z,177.30
2022-11-03T12:49:04.718Z,180.77
2022-11-03T12:51:36.571Z,188.80
2022-11-03T12:54:09.358Z,179.10
2022-11-03T12:56:41.519Z,189.02
2022-11-03T12:59:15.234Z,192.02
2022-11-03T13:01:47.355Z,198.65
2022-11-03T13:04:19.896Z,216.55
2022-11-03T13:06:52.107Z,211.63
2022-11-03T13:09:25.482Z,198.48
2022-11-03T13:12:14.385Z,210.18
2022-11-03T13:14:48.748Z,202.00
2022-11-03T13:17:21.049Z,208.38
2022-11-03T13:19:54.773Z,197.38
2022-11-03T13:22:26.941Z,211.82
2022-11-03T13:24:59.330Z,207.43
2022-11-03T13:27:32.587Z,205.82
2022-11-03T13:30:06.378Z,218.77
2022-11-03T13:32:38.733Z,230.02
2022-11-03T13:35:13.913Z,231.82
2022-11-03T13:37:47.042Z,238.20
2022-11-03T13:43:13.165Z,242.82
2022-11-03T13:45:46.940Z,245.13
2022-11-03T13:51:13.600Z,244.13
2022-11-03T13:59:31.442Z,257.05
2022-11-03T14:05:11.848Z,266.65
2022-11-03T14:07:43.929Z,291.30
2022-11-03T14:10:17.599Z,293.65
2022-11-03T14:12:49.555Z,299.38
2022-11-03T14:15:22.075Z,300.23
2022-11-03T14:17:55.882Z,303.27
2022-11-03T14:23:05.620Z,302.08
2022-11-03T14:25:37.736Z,311.27
2022-11-03T14:28:10.855Z,308.17
2022-11-03T14:30:42.963Z,286.80
2022-11-03T14:33:16.521Z,285.63
2022-11-03T14:35:51.075Z,283.50
2022-11-03T14:38:23.298Z,293.92
2022-11-03T14:41:12.152Z,295.27
2022-11-03T14:43:44.622Z,295.67
2022-11-03T14:46:17.099Z,300.98
2022-11-03T14:48:50.802Z,304.80
2022-11-03T14:51:28.097Z,304.92
2022-11-03T14:54:01.140Z,354.13
2022-11-03T14:56:33.894Z,353.92
2022-11-03T14:59:21.381Z,350.80
2022-11-03T15:01:54.810Z,346.30
2022-11-03T15:04:29.862Z,351.05
2022-11-03T15:07:02.894Z,353.00
2022-11-03T15:09:39.192Z,373.73
2022-11-03T15:12:16.606Z,370.38
2022-11-03T15:14:51.261Z,375.77
2022-11-03T15:17:26.499Z,385.08
2022-11-03T15:20:02.234Z,371.60
2022-11-03T15:25:32.241Z,366.98
2022-11-03T15:28:13.225Z,372.48
2022-11-03T15:30:46.494Z,370.20
2022-11-03T15:33:19.779Z,372.25
2022-11-03T15:35:55.590Z,374.13
2022-11-03T15:38:30.195Z,375.48
2022-11-03T15:41:16.483Z,377.67
2022-11-03T15:43:52.515Z,373.58
2022-11-03T15:46:26.270Z,374.55
2022-11-03T15:48:59.074Z,374.15
2022-11-03T15:51:34.520Z,379.55
2022-11-03T15:54:07.458Z,377.17
2022-11-03T15:56:39.918Z,381.15
2022-11-03T15:59:22.561Z,384.98
2022-11-03T16:02:03.645Z,378.42
2022-11-03T16:04:48.448Z,376.80
2022-11-03T16:07:23.678Z,376.25
2022-11-03T16:09:58.329Z,380.42
2022-11-03T16:12:33.640Z,375.20
2022-11-03T16:15:07.716Z,384.27
2022-11-03T16:17:45.350Z,377.98
2022-11-03T16:20:20.787Z,381.83
2022-11-03T16:22:59.386Z,371.48
2022-11-03T16:25:33.047Z,381.10
2022-11-03T16:28:08.166Z,378.08
2022-11-03T16:30:41.922Z,376.70
2022-11-03T16:33:15.911Z,377.38
2022-11-03T16:35:49.158Z,385.30
2022-11-03T16:38:30.168Z,375.83
2022-11-03T16:43:35.169Z,372.85
2022-11-03T16:46:08.133Z,377.92
2022-11-03T16:48:40.236Z,378.88
2022-11-03T16:51:12.740Z,376.95
2022-11-03T16:53:50.500Z,383.23
2022-11-03T16:56:24.282Z,381.40
2022-11-03T16:58:56.302Z,373.58
2022-11-03T17:01:28.877Z,378.20
2022-11-03T17:04:01.666Z,380.58
2022-11-03T17:06:34.232Z,375.33
2022-11-03T17:09:08.930Z,375.80
2022-11-03T17:11:44.222Z,372.63
2022-11-03T17:14:17.073Z,378.40
2022-11-03T17:16:50.231Z,373.38
2022-11-03T17:19:22.305Z,370.52
2022-11-03T17:21:56.575Z,376.08
2022-11-03T17:24:30.686Z,371.70
2022-11-03T17:27:11.403Z,370.48
2022-11-03T17:29:53.663Z,373.30
2022-11-03T17:32:31.951Z,371.48
2022-11-03T17:35:04.438Z,369.33
2022-11-03T17:37:39.055Z,367.30
2022-11-03T17:40:19.731Z,370.98
2022-11-03T17:42:53.585Z,361.90
2022-11-03T17:45:27.906Z,362.67
2022-11-03T17:48:00.378Z,361.00
2022-11-03T17:50:34.919Z,360.75
2022-11-03T17:53:09.666Z,360.45
2022-11-03T17:55:53.178Z,352.05
2022-11-03T17:58:46.525Z,349.95
2022-11-03T18:01:26.588Z,348.25
2022-11-03T18:06:30.764Z,354.50
2022-11-03T18:09:03.070Z,351.20
2022-11-03T18:11:57.828Z,349.45
2022-11-03T18:14:32.453Z,350.85
2022-11-03T18:17:06.867Z,358.42
2022-11-03T18:19:39.192Z,352.95
2022-11-03T18:22:13.190Z,355.30
2022-11-03T18:24:46.375Z,348.33
2022-11-03T18:27:24.978Z,343.23
2022-11-03T18:29:57.802Z,352.17
2022-11-03T18:32:35.678Z,335.48
2022-11-03T18:35:10.851Z,364.33
2022-11-03T18:37:45.719Z,354.67
2022-11-03T18:40:20.371Z,361.58
2022-11-03T18:42:54.567Z,358.60
2022-11-03T18:45:27.428Z,359.67
2022-11-03T18:47:59.465Z,353.45
2022-11-03T18:50:31.999Z,357.05
2022-11-03T18:53:04.206Z,358.00
2022-11-03T18:55:37.017Z,372.60
2022-11-03T18:58:18.895Z,365.80
2022-11-03T19:00:50.891Z,362.80
2022-11-03T19:03:24.235Z,362.60
2022-11-03T19:05:57.243Z,359.80
2022-11-03T19:08:32.069Z,360.25
2022-11-03T19:11:05.242Z,359.67
2022-11-03T19:13:41.616Z,359.20
2022-11-03T19:16:18.908Z,369.02
2022-11-03T19:18:51.740Z,367.83
2022-11-03T19:21:24.958Z,355.77
2022-11-03T19:23:58.505Z,360.73
2022-11-03T19:26:35.139Z,372.15
2022-11-03T19:29:14.721Z,365.75
2022-11-03T19:31:50.319Z,374.48
2022-11-03T19:34:25.545Z,357.98
2022-11-03T19:36:58.165Z,363.90
2022-11-03T19:39:34.336Z,370.80
2022-11-03T19:42:32.412Z,382.90
2022-11-03T19:45:08.198Z,365.70
2022-11-03T19:47:57.710Z,373.60
2022-11-03T19:50:37.405Z,363.48
2022-11-03T19:53:10.917Z,359.85
2022-11-03T19:55:46.495Z,375.42
2022-11-03T19:58:20.890Z,374.30
2022-11-03T20:00:54.952Z,376.63
2022-11-03T20:03:28.298Z,390.33
2022-11-03T20:06:01.425Z,381.80
2022-11-03T20:08:35.843Z,392.67
2022-11-03T20:11:10.209Z,392.05
2022-11-03T20:13:46.075Z,390.80
2022-11-03T20:16:22.416Z,397.23
2022-11-03T20:18:56.250Z,400.95
2022-11-03T20:21:34.218Z,394.50
2022-11-03T20:24:08.175Z,397.05
2022-11-03T20:26:41.639Z,397.27
2022-11-03T20:29:18.703Z,395.42
2022-11-03T20:31:54.137Z,404.13
2022-11-03T20:34:26.096Z,405.10
2022-11-03T20:37:01.456Z,424.23
2022-11-03T20:39:41.392Z,419.63
2022-11-03T20:42:21.543Z,412.65
2022-11-03T20:44:54.164Z,412.08
2022-11-03T20:47:30.121Z,411.83
2022-11-03T20:50:02.257Z,414.02
2022-11-03T20:52:34.433Z,407.10
2022-11-03T20:55:06.751Z,417.92
2022-11-03T20:57:39.343Z,417.30
2022-11-03T21:00:16.033Z,409.98
2022-11-03T21:02:51.041Z,425.05
2022-11-03T21:05:25.274Z,417.92
2022-11-03T21:07:58.475Z,418.60
2022-11-03T21:10:30.967Z,416.27
2022-11-03T21:13:02.935Z,424.52
2022-11-03T21:16:18.251Z,426.38
2022-11-03T21:19:02.910Z,426.75
2022-11-03T21:21:35.840Z,422.40
2022-11-03T21:24:08.753Z,424.20
2022-11-03T21:26:43.405Z,424.40
2022-11-03T21:29:27.462Z,430.45
2022-11-03T21:32:05.539Z,431.25
2022-11-03T21:34:39.640Z,429.38
2022-11-03T21:37:15.835Z,439.15
2022-11-03T21:39:48.874Z,421.83
2022-11-03T21:42:37.309Z,431.50
2022-11-03T21:45:10.667Z,433.67
2022-11-03T21:48:02.850Z,439.15
2022-11-03T21:50:35.412Z,432.75
2022-11-03T21:53:08.601Z,436.75
2022-11-03T21:55:41.047Z,435.02
2022-11-03T21:58:13.523Z,436.30
2022-11-03T22:00:47.241Z,435.33
2022-11-03T22:03:19.563Z,434.20
2022-11-03T22:05:53.095Z,428.55
2022-11-03T22:08:25.981Z,436.05
2022-11-03T22:11:22.807Z,429.92
2022-11-03T22:13:57.104Z,436.33
2022-11-03T22:16:42.205Z,430.33
2022-11-03T22:19:33.293Z,421.48
2022-11-03T22:22:26.021Z,421.10
2022-11-03T22:25:15.304Z,434.73
2022-11-03T22:27:48.044Z,428.30
2022-11-03T22:30:37.308Z,430.38
2022-11-03T22:33:10.013Z,426.92
2022-11-03T22:35:59.922Z,424.45
2022-11-03T22:38:47.239Z,437.70
2022-11-03T22:41:36.099Z,442.40
2022-11-03T22:44:26.162Z,446.58
2022-11-03T22:49:29.798Z,445.30
2022-11-03T22:52:02.334Z,446.70
2022-11-03T22:54:36.131Z,438.60
2022-11-03T22:57:09.222Z,424.60
2022-11-03T22:59:41.757Z,432.17
2022-11-03T23:02:14.270Z,426.05
2022-11-03T23:04:46.216Z,415.85
2022-11-03T23:07:18.239Z,448.52
2022-11-03T23:09:52.750Z,449.15
2022-11-03T23:12:24.727Z,438.52
2022-11-03T23:15:14.138Z,446.75
2022-11-03T23:18:02.440Z,438.15
2022-11-03T23:20:51.895Z,444.20
2022-11-03T23:23:40.742Z,444.60
2022-11-03T23:26:14.756Z,456.93
2022-11-03T23:28:47.716Z,442.88
2022-11-03T23:31:19.715Z,448.10
2022-11-03T23:33:51.855Z,463.08
2022-11-03T23:36:25.109Z,445.77
2022-11-03T23:38:58.419Z,433.33
2022-11-03T23:41:33.129Z,453.65
2022-11-03T23:44:05.701Z,461.35
2022-11-03T23:46:54.198Z,455.58
2022-11-03T23:49:26.544Z,458.63
2022-11-03T23:51:58.802Z,448.58
2022-11-03T23:54:31.100Z,458.08
2022-11-03T23:57:21.495Z,456.17
2022-11-03T23:59:53.343Z,458.83
